Latest Weather Observations for Cobar Airport

IDN60801

Issued at 2:32 pm EDT Saturday 28 March 2015 (issued every 30 minutes, with the page automatically refreshed every 10 minutes)

About weather observations | Map of weather stations | Latest weather observations for NSW | Other Formats
Station Details ID: 048237 Name: COBAR AIRPORT AWS Lat: -31.54 Lon: 145.80 Height: 218.0 m
Data from the previous 72 hours. | See also: Recent months for locations in New South Wales
Date/Time
EDT
Temp
°C
App
Temp
°C
Dew
Point
Rel
Hum
%
Delta-T
°C
Wind Press
QNH
hPa
Press
MSL
hPa
Rain
since 9 am
mm
Dir
 
Spd
km/h
Gust
km/h
Spd
kts
Gust
kts
28/02:30pm 24.3 20.0 3.0 25 10.4 SSW 15 22 8 12 1022.2 1021.3 0.0
28/02:00pm 23.3 19.4 3.3 27 9.7 SSW 13 22 7 12 1022.6 1021.7 0.0
28/01:30pm 22.9 19.0 3.4 28 9.5 SSW 13 24 7 13 1022.8 1021.9 0.0
28/01:00pm 22.6 18.0 3.7 29 9.2 S 17 28 9 15 1023.6 1022.7 0.0
28/12:30pm 21.5 16.9 3.7 31 8.7 S 17 26 9 14 1024.1 1023.2 0.0
28/12:00pm 21.4 16.8 3.6 31 8.6 S 17 24 9 13 1024.6 1023.6 0.0
28/11:30am 20.3 15.7 3.5 33 8.1 S 17 26 9 14 1024.9 1023.9 0.0
28/11:00am 20.1 16.4 4.2 35 7.7 SSE 13 20 7 11 1025.0 1024.0 0.0
28/10:30am 20.1 16.4 4.6 36 7.6 SE 13 22 7 12 1025.2 1024.2 0.0
28/10:00am 19.1 15.0 4.1 37 7.2 SE 15 24 8 13 1025.2 1024.2 0.0
28/09:30am 17.7 14.2 3.6 39 6.6 SE 11 17 6 9 1025.2 1024.2 0.0
28/09:00am 15.7 13.5 3.5 44 5.6 NE 4 7 2 4 1025.2 1024.2 0.0
28/08:30am 11.6 9.9 1.8 51 4.2 CALM 0 0 0 0 1024.8 1023.8 0.0
28/08:00am 9.5 7.7 1.4 57 3.4 CALM 0 0 0 0 1024.4 1023.4 0.0
28/07:30am 8.1 6.2 0.8 60 3.0 CALM 0 0 0 0 1024.0 1023.1 0.0
28/07:00am 8.6 6.0 0.8 58 3.2 NE 4 6 2 3 1023.8 1022.9 0.0
28/06:30am 8.3 5.1 0.8 59 3.1 SE 7 9 4 5 1023.5 1022.6 0.0
28/06:00am 8.8 6.8 -0.2 53 3.6 CALM 0 4 0 2 1023.3 1022.4 0.0
28/05:30am 9.8 6.6 0.7 53 3.8 SE 7 7 4 4 1023.1 1022.2 0.0
28/05:00am 10.7 7.3 2.0 55 3.7 SSE 9 11 5 6 1022.9 1022.0 0.0
28/04:30am 9.9 6.8 1.3 55 3.6 SE 7 9 4 5 1022.7 1021.8 0.0
28/04:00am 9.3 7.3 0.2 53 3.7 CALM 0 0 0 0 1022.6 1021.7 0.0
28/03:30am 10.1 8.2 0.4 51 4.0 CALM 0 0 0 0 1022.7 1021.8 0.0
28/03:00am 10.7 8.9 1.0 51 4.0 CALM 0 0 0 0 1023.0 1022.1 0.0
28/02:30am 11.1 9.2 0.8 49 4.3 CALM 0 0 0 0 1023.4 1022.5 0.0
28/02:00am 11.2 8.6 0.9 49 4.3 S 4 6 2 3 1023.4 1022.5 0.0
28/01:30am 12.3 10.5 1.3 47 4.7 CALM 0 0 0 0 1023.3 1022.4 0.0
28/01:00am 13.4 11.2 1.1 43 5.3 S 2 6 1 3 1023.3 1022.4 0.0
28/12:30am 13.8 11.0 1.8 44 5.3 S 6 7 3 4 1023.5 1022.6 0.0
28/12:00am 14.6 11.6 2.2 43 5.5 S 7 9 4 5 1023.7 1022.8 0.0
 
Date/Time
EDT
Temp
°C
App
Temp
°C
Dew
Point
Rel
Hum
%
Delta-T
°C
Wind Press
QNH
hPa
Press
MSL
hPa
Rain
since 9 am
mm
Dir
 
Spd
km/h
Gust
km/h
Spd
kts
Gust
kts
27/11:30pm 15.7 12.5 2.8 42 5.9 S 9 11 5 6 1023.6 1022.7 0.0
27/11:00pm 16.3 12.7 2.7 40 6.2 S 11 13 6 7 1023.6 1022.7 0.0
27/10:30pm 17.0 13.3 2.2 37 6.7 SSW 11 13 6 7 1023.9 1023.0 0.0
27/10:00pm 18.0 14.4 2.7 36 7.1 SSW 11 13 6 7 1023.8 1022.9 0.0
27/09:30pm 18.4 14.4 2.7 35 7.3 SSW 13 17 7 9 1023.5 1022.6 0.0
27/09:00pm 18.6 14.5 2.4 34 7.5 SSW 13 15 7 8 1023.4 1022.5 0.0
27/08:30pm 18.4 14.9 1.0 31 7.8 SSW 9 11 5 6 1023.1 1022.2 0.0
27/08:00pm 19.9 16.5 1.8 30 8.3 SSW 9 13 5 7 1022.7 1021.8 0.0
27/07:30pm 21.0 16.8 1.8 28 8.9 SSW 13 15 7 8 1022.4 1021.5 0.0
27/07:00pm 22.0 17.5 2.2 27 9.3 S 15 19 8 10 1022.3 1021.4 0.0
27/06:30pm 22.5 18.4 2.1 26 9.7 SSE 13 19 7 10 1022.1 1021.2 0.0
27/06:00pm 22.5 17.6 2.1 26 9.7 S 17 28 9 15 1021.7 1020.7 0.0
27/05:30pm 22.6 17.3 2.1 26 9.7 SW 19 30 10 16 1021.9 1020.9 0.0
27/05:00pm 22.7 17.8 2.2 26 9.7 SSE 17 28 9 15 1021.7 1020.7 0.0
27/04:30pm 22.8 17.9 2.3 26 9.8 S 17 28 9 15 1021.9 1020.9 0.0
27/04:00pm 22.8 18.8 2.8 27 9.6 SW 13 24 7 13 1022.0 1021.0 0.0
27/03:30pm 22.7 17.8 2.2 26 9.8 SW 17 26 9 14 1022.4 1021.5 0.0
27/03:00pm 21.3 16.8 2.1 28 9.0 SSW 15 24 8 13 1022.9 1022.0 0.0
27/02:30pm 21.5 16.7 2.7 29 9.0 SSW 17 30 9 16 1023.3 1022.4 0.0
27/02:00pm 20.8 16.4 2.6 30 8.6 SSW 15 28 8 15 1023.9 1023.0 0.0
27/01:30pm 19.7 14.2 2.1 31 8.2 SSW 20 30 11 16 1024.6 1023.6 0.0
27/01:00pm 19.6 14.3 2.0 31 8.1 SW 19 32 10 17 1025.3 1024.3 0.0
27/12:30pm 19.0 14.1 2.0 32 7.8 SSW 17 28 9 15 1025.8 1024.8 0.0
27/12:00pm 18.6 13.1 1.6 32 7.7 SW 20 28 11 15 1026.1 1025.1 0.0
27/11:30am 17.6 12.7 2.0 35 7.1 SSW 17 28 9 15 1026.5 1025.6 0.0
27/11:00am 17.2 11.9 2.0 36 6.9 SSW 19 30 10 16 1026.8 1025.9 0.0
27/10:30am 16.1 10.6 1.8 38 6.4 SSW 20 30 11 16 1026.7 1025.8 0.0
27/10:00am 15.4 10.0 2.2 41 5.9 S 20 28 11 15 1026.5 1025.6 0.0
27/09:30am 14.3 8.8 1.9 43 5.5 S 20 30 11 16 1026.5 1025.6 0.0
27/09:00am 12.9 7.8 0.6 43 5.2 S 17 24 9 13 1026.5 1025.6 -
27/08:30am 10.0 7.7 -2.0 43 4.7 CALM 0 0 0 0 1026.1 1025.1 -
27/08:00am 7.6 5.1 -3.6 45 4.0 CALM 0 0 0 0 1026.0 1025.0 -
27/07:30am 6.5 4.0 -3.7 48 3.6 CALM 0 0 0 0 1025.8 1024.8 -
27/07:00am 7.2 3.9 -4.2 44 4.0 S 4 6 2 3 1025.5 1024.5 -
27/06:30am 8.6 5.1 -2.6 45 4.2 S 6 7 3 4 1025.2 1024.2 -
27/06:00am 9.4 5.8 -2.2 44 4.4 S 7 9 4 5 1025.0 1024.0 -
27/05:30am 10.3 6.0 -1.7 43 4.7 S 11 15 6 8 1024.4 1023.4 -
27/05:00am 8.9 6.2 -2.4 45 4.3 SSW 2 6 1 3 1024.2 1023.3 -
27/04:30am 8.0 5.5 -4.1 42 4.4 CALM 0 0 0 0 1024.2 1023.3 -
27/04:00am 8.4 5.9 -3.7 42 4.4 CALM 0 0 0 0 1024.1 1023.2 -
27/03:30am 9.2 6.4 -3.3 41 4.7 S 2 6 1 3 1024.2 1023.3 -
27/03:00am 9.5 5.8 -4.1 38 5.0 S 6 7 3 4 1024.5 1023.5 0.0
27/02:30am 11.4 7.3 -3.1 36 5.6 SSE 9 9 5 5 1024.7 1023.7 -
27/02:00am 11.6 7.1 -2.9 36 5.6 S 11 13 6 7 1024.7 1023.7 -
27/01:30am 12.7 8.6 -3.1 33 6.2 S 9 11 5 6 1024.7 1023.7 -
27/01:00am 13.9 8.7 -2.5 32 6.5 S 15 19 8 10 1024.7 1023.7 -
27/12:30am 14.3 9.5 -2.6 31 6.8 SSE 13 15 7 8 1024.8 1023.8 -
27/12:00am 14.4 10.4 -2.5 31 6.8 S 9 15 5 8 1024.8 1023.8 -
 
Date/Time
EDT
Temp
°C
App
Temp
°C
Dew
Point
Rel
Hum
%
Delta-T
°C
Wind Press
QNH
hPa
Press
MSL
hPa
Rain
since 9 am
mm
Dir
 
Spd
km/h
Gust
km/h
Spd
kts
Gust
kts
26/11:30pm 15.4 10.7 -2.1 30 7.2 S 13 19 7 10 1024.7 1023.7 -
26/11:00pm 15.9 10.8 -2.1 29 7.4 S 15 19 8 10 1024.7 1023.7 -
26/10:30pm 16.6 11.1 -2.0 28 7.7 S 17 20 9 11 1024.7 1023.7 -
26/10:00pm 17.2 11.3 -1.9 27 8.0 S 19 22 10 12 1024.4 1023.4 -
26/09:30pm 17.6 12.2 -1.6 27 8.1 SSW 17 20 9 11 1024.0 1023.1 -
26/09:00pm 18.3 12.9 -1.0 27 8.3 SSW 17 22 9 12 1023.7 1022.8 0.0
26/08:30pm 19.0 13.4 0.1 28 8.4 SSW 19 28 10 15 1023.2 1022.3 -
26/08:00pm 19.7 14.7 1.2 29 8.4 SSW 17 24 9 13 1022.5 1021.6 -
26/07:30pm 20.3 15.3 1.2 28 8.8 SSW 17 22 9 12 1022.3 1021.4 -
26/07:00pm 21.1 16.2 1.9 28 9.0 SW 17 24 9 13 1021.9 1020.9 -
26/06:30pm 21.6 16.2 2.3 28 9.1 SW 20 28 11 15 1021.6 1020.6 -
26/06:00pm 22.3 17.1 3.4 29 9.2 WSW 20 30 11 16 1021.3 1020.3 -
26/05:30pm 22.8 17.3 3.9 29 9.3 SSW 22 32 12 17 1021.3 1020.3 -
26/05:00pm 22.6 17.4 3.7 29 9.2 SW 20 28 11 15 1021.3 1020.3 -
26/04:30pm 22.1 16.2 3.7 30 9.0 SW 24 35 13 19 1021.4 1020.4 -
26/04:00pm 22.6 16.8 4.6 31 8.9 SW 24 33 13 18 1021.5 1020.5 -
26/03:30pm 22.8 16.3 4.8 31 9.0 SW 28 37 15 20 1021.7 1020.7 -
26/03:00pm 21.7 16.6 4.3 32 8.5 WSW 20 33 11 18 1021.9 1020.9 -
26/02:30pm 21.8 16.9 3.9 31 8.8 WSW 19 33 10 18 1022.1 1021.2 -
26/02:00pm 21.9 16.4 4.0 31 8.7 SW 22 39 12 21 1022.5 1021.6 -
26/01:30pm 22.5 17.6 4.1 30 9.1 WSW 19 35 10 19 1022.6 1021.7 -
26/01:00pm 21.3 16.0 3.0 30 8.7 SW 20 32 11 17 1022.9 1022.0 -
26/12:30pm 20.8 15.3 2.1 29 8.8 SW 20 32 11 17 1023.1 1022.2 -
26/11:00am 20.0 14.1 1.4 29 8.5 WSW 22 30 12 16 1023.5 1022.6 0.0
26/10:30am 19.7 14.2 1.7 30 8.3 WSW 20 30 11 16 1023.0 1022.1 0.0
26/10:00am 18.8 15.3 1.3 31 7.9 SW 9 17 5 9 1022.7 1021.8 0.0
26/09:30am 17.2 14.9 0.4 32 7.4 WNW 2 6 1 3 1022.4 1021.5 0.0
26/09:00am 14.8 12.0 -0.1 36 6.3 W 4 7 2 4 1022.3 1021.4 0.0
26/08:30am 12.5 10.5 0.0 42 5.2 CALM 0 0 0 0 1021.7 1020.7 0.0
26/08:00am 9.4 7.2 -1.3 47 4.2 CALM 0 0 0 0 1021.3 1020.3 0.0
26/07:30am 8.5 6.3 -1.6 49 3.9 CALM 0 0 0 0 1021.0 1020.0 0.0
26/07:00am 8.5 6.3 -1.3 50 3.8 CALM 0 0 0 0 1020.7 1019.7 0.0
26/06:30am 8.6 6.4 -1.8 48 4.0 CALM 0 0 0 0 1020.2 1019.2 0.0
26/06:00am 9.5 7.3 -1.2 47 4.2 CALM 0 0 0 0 1020.1 1019.1 0.0
26/05:30am 9.6 7.5 -0.9 48 4.2 CALM 0 0 0 0 1019.9 1018.9 0.0
26/05:00am 9.4 7.2 -1.9 45 4.4 CALM 0 0 0 0 1019.7 1018.7 0.0
26/04:30am 9.6 7.3 -2.3 43 4.6 CALM 0 0 0 0 1019.6 1018.6 0.0
26/04:00am 10.3 8.2 -1.1 45 4.5 CALM 0 0 0 0 1019.4 1018.5 0.0
26/03:30am 10.9 8.8 -0.9 44 4.7 CALM 0 0 0 0 1019.3 1018.4 0.0
26/03:00am 11.1 8.9 -1.3 42 4.9 CALM 0 0 0 0 1019.6 1018.6 0.0
26/02:30am 11.9 9.8 -0.9 41 5.2 CALM 0 0 0 0 1019.8 1018.8 0.0
26/02:00am 12.4 10.3 -0.8 40 5.4 CALM 0 0 0 0 1019.8 1018.8 0.0
26/01:30am 12.6 10.5 -1.0 39 5.6 CALM 0 0 0 0 1019.8 1018.8 0.0
26/01:00am 13.2 11.0 -1.2 37 5.9 CALM 0 0 0 0 1019.6 1018.6 0.0
26/12:30am 14.1 10.9 -0.4 37 6.1 WSW 6 7 3 4 1019.4 1018.5 0.0
26/12:00am 14.4 11.2 -0.8 35 6.3 WSW 6 7 3 4 1019.4 1018.5 0.0
 
Date/Time
EDT
Temp
°C
App
Temp
°C
Dew
Point
Rel
Hum
%
Delta-T
°C
Wind Press
QNH
hPa
Press
MSL
hPa
Rain
since 9 am
mm
Dir
 
Spd
km/h
Gust
km/h
Spd
kts
Gust
kts
25/11:30pm 15.3 11.5 -0.4 34 6.7 W 9 11 5 6 1019.4 1018.5 0.0
25/11:00pm 15.9 12.7 -0.8 32 7.1 WSW 6 7 3 4 1019.2 1018.3 0.0
25/10:30pm 16.7 13.0 -0.1 32 7.3 WSW 9 11 5 6 1019.1 1018.2 0.0
25/10:00pm 16.4 13.0 -0.8 31 7.3 WSW 7 9 4 5 1018.9 1018.0 0.0
25/09:30pm 16.6 13.1 -1.0 30 7.5 WNW 7 9 4 5 1018.6 1017.7 0.0
25/09:00pm 18.0 16.0 -0.3 29 8.0 CALM 0 0 0 0 1018.3 1017.4 0.0
25/08:30pm 19.0 16.6 -0.4 27 8.5 SW 2 7 1 4 1017.9 1016.9 0.0
25/08:00pm 20.6 16.9 -0.1 25 9.3 WSW 9 9 5 5 1017.5 1016.5 0.0
25/07:30pm 21.8 17.8 0.4 24 9.8 W 11 15 6 8 1017.2 1016.2 0.0
25/07:00pm 22.9 18.8 0.1 22 10.4 WSW 11 17 6 9 1016.9 1015.9 0.0
25/06:30pm 23.3 19.3 0.4 22 10.6 WSW 11 17 6 9 1016.7 1015.7 0.0
25/06:00pm 23.4 18.9 -0.1 21 10.8 WNW 13 20 7 11 1016.4 1015.4 0.0
25/05:30pm 23.3 18.4 -0.2 21 10.7 WSW 15 24 8 13 1016.2 1015.2 0.0
25/05:00pm 23.2 17.7 0.3 22 10.5 W 19 28 10 15 1016.3 1015.3 0.0
25/04:30pm 23.0 17.8 0.2 22 10.5 W 17 30 9 16 1016.5 1015.5 0.0
25/04:00pm 23.2 18.5 0.9 23 10.4 SW 15 24 8 13 1016.7 1015.7 0.0
25/03:30pm 22.4 17.7 0.9 24 10.0 WSW 15 22 8 12 1016.8 1015.8 0.0
25/03:00pm 22.1 16.5 0.0 23 10.0 W 19 28 10 15 1017.0 1016.0 0.0

Other Formats:

Comma delimited format used in spreadsheet applications
http://www.bom.gov.au/fwo/IDN60801/IDN60801.94710.axf

JavaScript Object Notation format (JSON) in row-major order
http://www.bom.gov.au/fwo/IDN60801/IDN60801.94710.json